createdAt,value
2019-02-17T00:07:10.652Z,304.4
2019-02-17T00:17:28.074Z,303.9
2019-02-17T00:27:45.490Z,303.6
2019-02-17T00:32:54.279Z,304.1
2019-02-17T00:38:03.048Z,304.3
2019-02-17T00:48:20.593Z,303.7
2019-02-17T01:08:55.815Z,304.1
2019-02-17T01:14:04.781Z,304
2019-02-17T01:19:13.325Z,303.8
2019-02-17T01:24:22.225Z,303.7
2019-02-17T01:34:39.735Z,303.8
2019-02-17T01:50:10.697Z,303.3
2019-02-17T01:55:15.024Z,303
2019-02-17T02:00:23.920Z,303.7
2019-02-17T02:10:41.573Z,303.4
2019-02-17T02:15:50.397Z,303.7
2019-02-17T02:20:59.272Z,303.2
2019-02-17T02:31:17.127Z,303.1
2019-02-17T02:41:34.862Z,303.6
2019-02-17T02:51:52.584Z,303.2
2019-02-17T03:02:10.346Z,302.9
2019-02-17T03:22:45.876Z,302.5
2019-02-17T03:33:03.574Z,302.9
2019-02-17T03:53:40.184Z,303.2
2019-02-17T04:03:57.111Z,302.8
2019-02-17T04:09:05.979Z,302.9
2019-02-17T04:14:15.016Z,303.7
2019-02-17T04:24:32.877Z,303.1
2019-02-17T04:34:50.819Z,303.4
2019-02-17T04:40:03.457Z,302.5
2019-02-17T04:45:08.573Z,302.8
2019-02-17T05:05:44.482Z,302.9
2019-02-17T05:16:03.182Z,303
2019-02-17T05:41:47.239Z,302.9
2019-02-17T05:46:56.151Z,302.8
2019-02-17T05:57:13.989Z,302.7
2019-02-17T06:07:31.865Z,302.8
2019-02-17T06:17:49.961Z,302.6
2019-02-17T06:53:52.282Z,302.3
2019-02-17T06:59:01.479Z,302.4
2019-02-17T07:19:37.031Z,302.7
2019-02-17T07:24:46.002Z,302.9
2019-02-17T07:29:54.795Z,301.7
2019-02-17T07:40:15.194Z,302.8
2019-02-17T07:45:21.512Z,302.5
2019-02-17T07:50:30.232Z,302.9
2019-02-17T07:55:39.053Z,303
2019-02-17T08:00:47.787Z,302.8
2019-02-17T08:05:56.565Z,303
2019-02-17T08:11:05.312Z,302.8
2019-02-17T08:16:13.731Z,302.8
2019-02-17T08:26:30.706Z,302.8
2019-02-17T08:31:39.148Z,302.6
2019-02-17T08:41:55.754Z,302
2019-02-17T08:47:03.844Z,302.6
2019-02-17T08:52:11.977Z,301.9
2019-02-17T09:02:28.255Z,302.1
2019-02-17T09:12:44.232Z,302.4
2019-02-17T09:17:52.120Z,302.4
2019-02-17T09:22:59.986Z,302.3
2019-02-17T09:28:07.834Z,301.9
2019-02-17T09:33:15.653Z,302.2
2019-02-17T09:38:23.349Z,302.2
2019-02-17T09:43:30.982Z,302
2019-02-17T09:48:38.723Z,302.2
2019-02-17T09:53:46.235Z,302
2019-02-17T10:14:16.217Z,302
2019-02-17T10:24:31.012Z,302
2019-02-17T10:34:45.588Z,301.6
2019-02-17T10:55:14.172Z,301.8
2019-02-17T11:05:28.116Z,301.8
2019-02-17T11:10:35.071Z,301.9
2019-02-17T11:15:42.015Z,301.8
2019-02-17T11:25:55.749Z,302
2019-02-17T11:31:02.633Z,301.6
2019-02-17T11:51:29.742Z,302
2019-02-17T11:56:36.580Z,302.3
2019-02-17T12:06:50.062Z,302.1
2019-02-17T12:11:56.729Z,301.8
2019-02-17T12:17:03.473Z,301.9
2019-02-17T12:37:30.584Z,302.1
2019-02-17T12:47:44.033Z,301.8
2019-02-17T12:57:57.573Z,301.8
2019-02-17T13:03:04.361Z,301.8
2019-02-17T13:08:11.184Z,302
2019-02-17T13:18:24.775Z,301.6
2019-02-17T13:33:45.266Z,301.5
2019-02-17T13:49:05.931Z,301.8
2019-02-17T13:59:19.866Z,301.6
2019-02-17T14:14:40.761Z,301.6
2019-02-17T14:19:47.659Z,301.8
2019-02-17T14:30:01.851Z,302
2019-02-17T14:40:16.088Z,301.5
2019-02-17T14:50:30.471Z,301.5
2019-02-17T15:00:44.845Z,301.4
2019-02-17T15:16:06.599Z,301.3
2019-02-17T15:21:13.895Z,301.3
2019-02-17T15:31:28.677Z,301.9
2019-02-17T15:41:43.433Z,302.1
2019-02-17T15:51:58.206Z,301.7
2019-02-17T16:12:28.213Z,302.2
2019-02-17T16:27:50.856Z,302.3
2019-02-17T16:32:58.350Z,302
2019-02-17T17:13:59.623Z,302.1
2019-02-17T17:39:38.768Z,302.5
2019-02-17T17:44:46.924Z,302.6
2019-02-17T17:55:02.539Z,302.6
2019-02-17T18:05:18.757Z,303.1
2019-02-17T18:15:34.433Z,303.3
2019-02-17T18:25:50.480Z,303.3
2019-02-17T18:56:39.019Z,303.4
2019-02-17T19:17:11.616Z,302.6
2019-02-17T19:27:27.997Z,302.9
2019-02-17T19:37:44.361Z,302.1
2019-02-17T19:48:00.986Z,302.4
2019-02-17T19:58:17.624Z,302.2
2019-02-17T20:29:07.517Z,301.8
2019-02-17T20:39:24.262Z,302
2019-02-17T20:49:41.118Z,301.7
2019-02-17T20:59:57.921Z,301.9
2019-02-17T21:05:06.415Z,301.9
2019-02-17T21:10:14.767Z,301.9
2019-02-17T21:20:31.724Z,302
2019-02-17T21:30:48.688Z,302.1
2019-02-17T21:41:05.669Z,302.4
2019-02-17T22:22:13.865Z,301.6
2019-02-17T22:32:30.870Z,301.7
2019-02-17T22:53:05.113Z,301.9
2019-02-17T23:03:22.166Z,302
2019-02-17T23:13:39.259Z,302.1
2019-02-17T23:23:56.376Z,301.9
2019-02-17T23:54:47.804Z,302.1
